createdAt,value
2022-11-28T00:01:31.122Z,100367.00
2022-11-28T00:03:59.006Z,100361.97
2022-11-28T00:06:27.604Z,100346.59
2022-11-28T00:08:56.000Z,100342.47
2022-11-28T00:11:25.129Z,100346.00
2022-11-28T00:13:53.101Z,100341.84
2022-11-28T00:16:23.248Z,100336.28
2022-11-28T00:18:51.819Z,100343.53
2022-11-28T00:21:20.426Z,100347.06
2022-11-28T00:23:49.436Z,100342.03
2022-11-28T00:26:19.806Z,100346.94
2022-11-28T00:28:49.353Z,100330.88
2022-11-28T00:31:18.994Z,100326.03
2022-11-28T00:33:47.134Z,100307.06
2022-11-28T00:36:15.412Z,100314.28
2022-11-28T00:38:43.635Z,100317.00
2022-11-28T00:41:13.920Z,100311.25
2022-11-28T00:43:42.200Z,100312.00
2022-11-28T00:46:11.949Z,100309.50
2022-11-28T00:48:39.961Z,100298.38
2022-11-28T00:51:09.214Z,100308.13
2022-11-28T00:53:37.960Z,100315.38
2022-11-28T00:56:06.965Z,100309.50
2022-11-28T00:58:35.782Z,100315.66
2022-11-28T01:01:09.062Z,100314.25
2022-11-28T01:03:38.676Z,100319.16
2022-11-28T01:06:07.738Z,100317.03
2022-11-28T01:08:35.854Z,100314.72
2022-11-28T01:11:04.426Z,100325.50
2022-11-28T01:13:32.295Z,100326.88
2022-11-28T01:16:00.314Z,100327.94
2022-11-28T01:18:28.129Z,100326.25
2022-11-28T01:20:57.379Z,100322.03
2022-11-28T01:23:25.151Z,100317.50
2022-11-28T01:25:52.933Z,100313.13
2022-11-28T01:28:20.698Z,100297.00
2022-11-28T01:30:48.565Z,100312.66
2022-11-28T01:33:16.452Z,100311.47
2022-11-28T01:35:44.274Z,100307.94
2022-11-28T01:38:13.500Z,100305.56
2022-11-28T01:40:46.385Z,100296.25
2022-11-28T01:43:14.250Z,100299.97
2022-11-28T01:45:42.087Z,100291.72
2022-11-28T01:48:14.890Z,100286.13
2022-11-28T01:50:46.012Z,100282.06
2022-11-28T01:53:15.715Z,100280.00
2022-11-28T01:55:50.376Z,100269.50
2022-11-28T01:58:18.321Z,100259.09
2022-11-28T02:00:47.144Z,100253.28
2022-11-28T02:03:18.736Z,100249.34
2022-11-28T02:05:47.096Z,100251.44
2022-11-28T02:08:16.256Z,100248.16
2022-11-28T02:10:55.345Z,100262.09
2022-11-28T02:13:34.865Z,100247.78
2022-11-28T02:16:14.871Z,100249.47
2022-11-28T02:18:58.213Z,100249.72
2022-11-28T02:21:50.386Z,100228.53
2022-11-28T02:24:50.864Z,100238.75
2022-11-28T02:27:29.524Z,100225.84
2022-11-28T02:30:12.259Z,100230.41
2022-11-28T02:32:58.632Z,100227.50
2022-11-28T02:35:35.522Z,100243.75
2022-11-28T02:38:09.395Z,100239.00
2022-11-28T02:40:39.904Z,100230.75
2022-11-28T02:43:17.875Z,100227.78
2022-11-28T02:45:51.658Z,100214.41
2022-11-28T02:48:30.322Z,100224.69
2022-11-28T02:51:04.327Z,100224.16
2022-11-28T02:53:34.028Z,100227.69
2022-11-28T02:56:02.342Z,100204.81
2022-11-28T02:58:30.458Z,100208.00
2022-11-28T03:00:58.705Z,100222.97
2022-11-28T03:03:48.568Z,100226.31
2022-11-28T03:06:28.616Z,100216.94
2022-11-28T03:09:07.425Z,100225.53
2022-11-28T03:11:48.599Z,100210.59
2022-11-28T03:14:25.307Z,100212.25
2022-11-28T03:17:02.970Z,100215.59
2022-11-28T03:19:35.693Z,100213.56
2022-11-28T03:22:11.340Z,100209.78
2022-11-28T03:24:45.168Z,100211.00
2022-11-28T03:27:18.870Z,100206.88
2022-11-28T03:29:52.419Z,100200.78
2022-11-28T03:32:24.392Z,100204.94
2022-11-28T03:34:58.494Z,100195.47
2022-11-28T03:37:31.102Z,100188.59
2022-11-28T03:40:03.755Z,100184.72
2022-11-28T03:42:37.163Z,100181.03
2022-11-28T03:45:10.816Z,100162.56
2022-11-28T03:47:43.713Z,100179.63
2022-11-28T03:50:18.794Z,100186.88
2022-11-28T03:52:51.756Z,100184.44
2022-11-28T03:55:24.964Z,100172.81
2022-11-28T03:57:59.694Z,100175.09
2022-11-28T04:00:27.767Z,100173.66
2022-11-28T04:03:07.659Z,100180.06
2022-11-28T04:05:44.109Z,100168.28
2022-11-28T04:08:18.317Z,100152.50
2022-11-28T04:10:54.563Z,100160.84
2022-11-28T04:13:27.072Z,100155.47
2022-11-28T04:15:59.786Z,100156.59
2022-11-28T04:18:30.932Z,100149.41
2022-11-28T04:21:08.237Z,100159.53
2022-11-28T04:23:38.972Z,100146.19
2022-11-28T04:26:12.777Z,100139.63
2022-11-28T04:28:42.203Z,100154.75
2022-11-28T04:31:11.332Z,100137.09
2022-11-28T04:33:44.188Z,100140.81
2022-11-28T04:36:18.656Z,100146.19
2022-11-28T04:38:56.424Z,100121.25
2022-11-28T04:41:28.858Z,100144.47
2022-11-28T04:44:02.086Z,100132.50
2022-11-28T04:46:36.380Z,100130.00
2022-11-28T04:49:04.517Z,100135.97
2022-11-28T04:51:43.826Z,100131.66
2022-11-28T04:54:20.835Z,100130.63
2022-11-28T04:56:56.670Z,100133.88
2022-11-28T04:59:27.353Z,100128.31
2022-11-28T05:01:58.378Z,100123.88
2022-11-28T05:04:26.685Z,100122.94
2022-11-28T05:07:03.413Z,100121.13
2022-11-28T05:09:31.297Z,100126.63
2022-11-28T05:11:59.199Z,100127.03
2022-11-28T05:14:27.732Z,100116.22
2022-11-28T05:16:55.623Z,100117.50
2022-11-28T05:19:23.795Z,100127.22
2022-11-28T05:21:53.140Z,100113.16
2022-11-28T05:24:22.666Z,100125.59
2022-11-28T05:26:50.678Z,100122.25
2022-11-28T05:29:18.722Z,100123.91
2022-11-28T05:31:46.542Z,100121.94
2022-11-28T05:34:14.368Z,100127.09
2022-11-28T05:36:42.145Z,100111.91
2022-11-28T05:39:09.957Z,100118.97
2022-11-28T05:41:39.145Z,100119.03
2022-11-28T05:44:07.299Z,100118.41
2022-11-28T05:46:35.218Z,100098.97
2022-11-28T05:49:03.047Z,100101.34
2022-11-28T05:51:31.070Z,100110.69
2022-11-28T05:53:59.192Z,100107.31
2022-11-28T05:56:26.987Z,100121.09
2022-11-28T05:58:56.356Z,100129.56
2022-11-28T06:01:26.589Z,100106.16
2022-11-28T06:04:08.016Z,100111.34
2022-11-28T06:06:36.685Z,100110.31
2022-11-28T06:09:06.073Z,100117.06
2022-11-28T06:11:35.539Z,100108.72
2022-11-28T06:14:04.901Z,100095.19
2022-11-28T06:16:33.484Z,100108.66
2022-11-28T06:19:03.458Z,100123.91
2022-11-28T06:21:32.149Z,100113.06
2022-11-28T06:24:00.783Z,100115.56
2022-11-28T06:26:29.901Z,100111.66
2022-11-28T06:28:58.516Z,100097.22
2022-11-28T06:31:30.028Z,100106.19
2022-11-28T06:33:58.625Z,100103.78
2022-11-28T06:36:27.696Z,100102.66
2022-11-28T06:38:55.524Z,100111.66
2022-11-28T06:41:23.654Z,100106.28
2022-11-28T06:43:52.018Z,100109.34
2022-11-28T06:46:22.292Z,100110.50
2022-11-28T06:48:52.890Z,100093.31
2022-11-28T06:51:21.870Z,100102.09
2022-11-28T06:53:49.947Z,100082.41
2022-11-28T06:56:20.714Z,100108.06
2022-11-28T06:58:55.173Z,100103.81
2022-11-28T07:01:25.058Z,100108.88
2022-11-28T07:03:55.326Z,100088.91
2022-11-28T07:06:24.744Z,100112.03
2022-11-28T07:08:53.564Z,100123.00
2022-11-28T07:11:24.094Z,100125.06
2022-11-28T07:13:52.015Z,100131.91
2022-11-28T07:16:21.518Z,100130.38
2022-11-28T07:18:50.045Z,100134.47
2022-11-28T07:21:19.875Z,100134.03
2022-11-28T07:23:48.847Z,100125.19
2022-11-28T07:26:18.688Z,100118.97
2022-11-28T07:28:47.524Z,100121.41
2022-11-28T07:31:17.529Z,100132.88
2022-11-28T07:33:47.152Z,100133.06
2022-11-28T07:36:17.071Z,100137.88
2022-11-28T07:38:47.906Z,100134.44
2022-11-28T07:41:15.903Z,100136.34
2022-11-28T07:43:45.555Z,100139.50
2022-11-28T07:46:16.965Z,100124.22
2022-11-28T07:48:45.379Z,100138.66
2022-11-28T07:51:15.196Z,100130.81
2022-11-28T07:53:44.062Z,100097.09
2022-11-28T07:56:15.336Z,100138.56
2022-11-28T07:58:45.313Z,100136.25
2022-11-28T08:01:15.275Z,100147.94
2022-11-28T08:03:44.594Z,100135.41
2022-11-28T08:06:13.315Z,100145.25
2022-11-28T08:08:41.892Z,100136.38
2022-11-28T08:11:11.301Z,100143.03
2022-11-28T08:13:41.195Z,100140.13
2022-11-28T08:16:12.746Z,100140.13
2022-11-28T08:18:40.728Z,100135.53
2022-11-28T08:21:11.223Z,100134.19
2022-11-28T08:23:40.052Z,100134.88
2022-11-28T08:26:10.394Z,100130.88
2022-11-28T08:28:40.206Z,100127.56
2022-11-28T08:31:11.902Z,100130.03
2022-11-28T08:33:40.172Z,100141.28
2022-11-28T08:36:09.348Z,100139.84
2022-11-28T08:38:38.034Z,100137.97
2022-11-28T08:41:08.241Z,100123.66
2022-11-28T08:43:36.762Z,100132.88
2022-11-28T08:46:06.861Z,100128.97
2022-11-28T08:48:36.071Z,100112.94
2022-11-28T08:51:04.503Z,100110.84
2022-11-28T08:53:32.889Z,100112.97
2022-11-28T08:56:01.229Z,100096.13
2022-11-28T08:58:29.267Z,100117.41
2022-11-28T09:00:57.181Z,100100.78
2022-11-28T09:03:26.502Z,100101.84
2022-11-28T09:05:54.496Z,100102.69
2022-11-28T09:08:23.402Z,100090.59
2022-11-28T09:10:51.311Z,100093.13
2022-11-28T09:13:19.459Z,100101.28
2022-11-28T09:15:51.224Z,100111.41
2022-11-28T09:18:23.692Z,100128.31
2022-11-28T09:20:58.919Z,100107.25
2022-11-28T09:23:26.913Z,100133.38
2022-11-28T09:25:54.938Z,100140.63
2022-11-28T09:28:23.148Z,100125.97
2022-11-28T09:30:51.457Z,100134.38
2022-11-28T09:33:19.453Z,100117.78
2022-11-28T09:35:47.599Z,100134.88
2022-11-28T09:38:17.119Z,100115.50
2022-11-28T09:40:45.690Z,100122.84
2022-11-28T09:43:18.071Z,100130.78
2022-11-28T09:45:50.569Z,100132.06
2022-11-28T09:48:26.799Z,100131.47
2022-11-28T09:51:02.127Z,100117.97
2022-11-28T09:53:37.689Z,100104.88
2022-11-28T09:56:10.712Z,100081.00
2022-11-28T09:58:46.738Z,100087.25
2022-11-28T10:01:21.862Z,100091.22
2022-11-28T10:03:57.130Z,100076.03
2022-11-28T10:06:29.880Z,100105.78
2022-11-28T10:09:27.304Z,100087.88
2022-11-28T10:12:09.333Z,100088.94
2022-11-28T10:15:09.744Z,100103.88
2022-11-28T10:17:48.489Z,100090.78
2022-11-28T10:20:22.415Z,100103.03
2022-11-28T10:22:54.401Z,100079.34
2022-11-28T10:25:28.265Z,100063.97
2022-11-28T10:27:57.234Z,100081.03
2022-11-28T10:30:27.364Z,100081.84
2022-11-28T10:33:01.927Z,100081.69
2022-11-28T10:35:40.532Z,100062.97
2022-11-28T10:38:14.042Z,100094.34
2022-11-28T10:40:49.052Z,100071.09
2022-11-28T10:43:30.408Z,100097.06
2022-11-28T10:46:05.588Z,100085.19
2022-11-28T10:48:43.976Z,100096.44
2022-11-28T10:51:26.977Z,100067.72
2022-11-28T10:54:10.374Z,100091.25
2022-11-28T10:56:52.443Z,100086.84
2022-11-28T10:59:32.612Z,100086.63
2022-11-28T11:02:04.931Z,100081.22
2022-11-28T11:04:37.951Z,100073.56
2022-11-28T11:07:20.213Z,100083.94
2022-11-28T11:09:50.674Z,100067.50
2022-11-28T11:12:25.626Z,100063.97
2022-11-28T11:14:53.985Z,100065.44
2022-11-28T11:17:36.320Z,100033.19
2022-11-28T11:20:27.867Z,100069.94
2022-11-28T11:22:57.042Z,100069.31
2022-11-28T11:25:26.517Z,100071.63
2022-11-28T11:27:57.745Z,100065.09
2022-11-28T11:30:29.627Z,100069.75
2022-11-28T11:33:00.701Z,100065.16
2022-11-28T11:35:31.227Z,100063.50
2022-11-28T11:38:18.877Z,100070.13
2022-11-28T11:40:47.414Z,100060.16
2022-11-28T11:43:30.861Z,100059.25
2022-11-28T11:46:07.828Z,100054.25
2022-11-28T11:48:37.699Z,100048.81
2022-11-28T11:51:06.862Z,100054.19
2022-11-28T11:53:34.790Z,100053.25
2022-11-28T11:56:04.624Z,100051.50
2022-11-28T11:58:44.518Z,100049.84
2022-11-28T12:01:14.642Z,100050.44
2022-11-28T12:03:52.465Z,100055.25
2022-11-28T12:06:25.154Z,100058.47
2022-11-28T12:08:55.515Z,100058.38
2022-11-28T12:11:27.656Z,100045.63
2022-11-28T12:14:01.484Z,100058.22
2022-11-28T12:16:46.749Z,100050.09
2022-11-28T12:19:27.326Z,100060.34
2022-11-28T12:22:07.307Z,100033.09
2022-11-28T12:31:37.024Z,100057.28
2022-11-28T13:15:16.775Z,100034.88
2022-11-28T13:18:15.404Z,100013.06
2022-11-28T13:20:52.917Z,100036.94
2022-11-28T13:23:29.440Z,99982.09
2022-11-28T13:26:06.600Z,100019.91
2022-11-28T13:28:43.550Z,99990.63
2022-11-28T13:31:37.025Z,100014.72
2022-11-28T13:34:09.429Z,100023.44
2022-11-28T13:39:51.485Z,100025.75
2022-11-28T13:43:03.095Z,100047.34
2022-11-28T13:45:32.664Z,100038.63
2022-11-28T13:49:12.590Z,100025.75
2022-11-28T13:51:33.412Z,100021.38
2022-11-28T13:54:48.916Z,100010.34
2022-11-28T13:57:40.438Z,100036.34
2022-11-28T14:00:28.275Z,99986.66
2022-11-28T14:03:21.181Z,100004.13
2022-11-28T14:05:58.027Z,100023.66
2022-11-28T14:08:32.890Z,100020.28
2022-11-28T14:11:34.614Z,99991.81
2022-11-28T14:14:42.741Z,100014.28
2022-11-28T14:17:38.329Z,100042.56
2022-11-28T14:20:21.042Z,99996.25
2022-11-28T14:23:08.145Z,100042.97
2022-11-28T14:25:43.580Z,100024.25
2022-11-28T14:28:23.859Z,100025.13
2022-11-28T14:30:53.821Z,100047.97
2022-11-28T14:33:27.354Z,100013.50
2022-11-28T14:36:24.772Z,99993.72
2022-11-28T14:39:39.987Z,100023.88
2022-11-28T14:42:59.428Z,100047.16
2022-11-28T14:45:50.010Z,100049.84
2022-11-28T14:48:32.505Z,100022.22
2022-11-28T14:51:02.672Z,100049.66
2022-11-28T14:53:51.714Z,100056.88
2022-11-28T14:56:31.596Z,100022.84
2022-11-28T14:59:05.815Z,100040.56
2022-11-28T15:01:54.296Z,100044.38
2022-11-28T15:04:42.813Z,100009.09
2022-11-28T15:07:30.483Z,99994.34
2022-11-28T15:10:11.484Z,100014.53
2022-11-28T15:12:49.053Z,100041.16
2022-11-28T15:15:23.461Z,100012.44
2022-11-28T15:17:56.607Z,100054.88
2022-11-28T15:20:32.917Z,100049.88
2022-11-28T15:23:37.123Z,100057.56
2022-11-28T15:26:27.115Z,100054.66
2022-11-28T15:29:10.406Z,100022.41
2022-11-28T15:31:39.110Z,100021.78
2022-11-28T15:34:13.608Z,100055.28
2022-11-28T15:36:44.165Z,100034.25
2022-11-28T15:39:29.951Z,100055.03
2022-11-28T15:42:02.877Z,100063.38
2022-11-28T15:45:13.182Z,100058.63
2022-11-28T15:48:13.571Z,100053.41
2022-11-28T15:51:54.862Z,100068.16
2022-11-28T16:02:20.078Z,100069.56
2022-11-28T16:08:25.042Z,100068.59
2022-11-28T16:11:20.365Z,100067.13
2022-11-28T16:13:49.268Z,100054.63
2022-11-28T16:16:20.366Z,100056.91
2022-11-28T16:18:56.800Z,100058.78
2022-11-28T16:21:30.475Z,100034.44
2022-11-28T16:24:00.698Z,100065.44
2022-11-28T16:26:33.984Z,100071.47
2022-11-28T16:29:13.330Z,100071.25
2022-11-28T16:31:42.938Z,100077.13
2022-11-28T16:34:14.996Z,100072.28
2022-11-28T16:36:47.903Z,100077.47
2022-11-28T16:39:18.400Z,100072.72
2022-11-28T16:41:54.702Z,100087.69
2022-11-28T16:44:26.197Z,100081.88
2022-11-28T16:46:56.035Z,100071.91
2022-11-28T16:49:34.631Z,100077.94
2022-11-28T16:52:46.780Z,100077.31
2022-11-28T16:55:44.225Z,100078.56
2022-11-28T16:58:15.423Z,100084.81
2022-11-28T17:00:53.898Z,100073.94
2022-11-28T17:03:44.443Z,100074.22
2022-11-28T17:06:36.919Z,100076.06
2022-11-28T17:09:10.288Z,100066.88
2022-11-28T17:11:45.979Z,100079.81
2022-11-28T17:14:15.430Z,100082.50
2022-11-28T17:16:45.370Z,100058.59
2022-11-28T17:19:14.071Z,100046.91
2022-11-28T17:21:44.852Z,100044.03
2022-11-28T17:24:18.861Z,100084.34
2022-11-28T17:26:54.433Z,100086.88
2022-11-28T17:29:25.386Z,100058.78
2022-11-28T17:31:55.703Z,100083.31
2022-11-28T17:34:25.780Z,100062.53
2022-11-28T17:36:54.307Z,100099.38
2022-11-28T17:39:24.392Z,100096.22
2022-11-28T17:41:53.877Z,100052.75
2022-11-28T17:44:27.900Z,100101.03
2022-11-28T17:46:59.084Z,100099.16
2022-11-28T17:49:31.237Z,100063.34
2022-11-28T17:52:02.326Z,100092.69
2022-11-28T17:54:47.012Z,100095.19
2022-11-28T17:57:18.461Z,100092.50
2022-11-28T17:59:49.774Z,100088.09
2022-11-28T18:02:30.082Z,100086.22
2022-11-28T18:05:21.837Z,100069.19
2022-11-28T18:08:25.066Z,100086.88
2022-11-28T18:11:17.643Z,100089.97
2022-11-28T18:13:48.484Z,100091.00
2022-11-28T18:16:30.461Z,100058.16
2022-11-28T18:19:09.759Z,100092.47
2022-11-28T18:21:43.076Z,100094.75
2022-11-28T18:24:10.973Z,100092.66
2022-11-28T18:26:40.623Z,100076.03
2022-11-28T18:29:08.768Z,100097.25
2022-11-28T18:31:36.898Z,100084.53
2022-11-28T18:34:09.613Z,100081.00
2022-11-28T18:36:39.087Z,100078.94
2022-11-28T18:39:09.044Z,100076.44
2022-11-28T18:41:47.541Z,100095.81
2022-11-28T18:44:24.919Z,100065.44
2022-11-28T18:47:21.407Z,100100.19
2022-11-28T18:49:53.517Z,100067.94
2022-11-28T18:52:24.245Z,100109.34
2022-11-28T18:54:54.504Z,100105.81
2022-11-28T18:57:31.746Z,100104.97
2022-11-28T19:00:02.123Z,100093.97
2022-11-28T19:02:33.623Z,100109.75
2022-11-28T19:05:08.413Z,100106.84
2022-11-28T19:07:38.634Z,100106.63
2022-11-28T19:10:09.234Z,100098.72
2022-11-28T19:12:41.953Z,100102.44
2022-11-28T19:15:13.026Z,100106.38
2022-11-28T19:17:48.087Z,100111.00
2022-11-28T19:20:17.601Z,100055.84
2022-11-28T19:22:48.134Z,100067.94
2022-11-28T19:25:16.706Z,100079.56
2022-11-28T19:27:45.958Z,100083.94
2022-11-28T19:30:14.494Z,100094.34
2022-11-28T19:32:42.461Z,100091.63
2022-11-28T19:35:10.736Z,100104.50
2022-11-28T19:37:38.800Z,100106.44
2022-11-28T19:40:13.161Z,100107.47
2022-11-28T19:42:48.332Z,100093.50
2022-11-28T19:45:21.635Z,100101.81
2022-11-28T19:47:50.906Z,100100.56
2022-11-28T19:50:22.766Z,100101.59
2022-11-28T19:52:52.475Z,100113.84
2022-11-28T19:55:21.372Z,100107.63
2022-11-28T19:57:53.312Z,100093.28
2022-11-28T20:00:23.122Z,100111.38
2022-11-28T20:03:20.836Z,100118.03
2022-11-28T20:05:49.438Z,100111.59
2022-11-28T20:08:17.507Z,100107.22
2022-11-28T20:10:45.594Z,100120.53
2022-11-28T20:13:16.422Z,100121.56
2022-11-28T20:15:45.103Z,100124.91
2022-11-28T20:18:19.748Z,100131.31
2022-11-28T20:20:50.945Z,100115.31
2022-11-28T20:23:18.826Z,100115.53
2022-11-28T20:25:46.835Z,100131.53
2022-11-28T20:28:16.280Z,100109.03
2022-11-28T20:30:46.458Z,100136.06
2022-11-28T20:33:20.719Z,100136.94
2022-11-28T20:35:49.529Z,100139.22
2022-11-28T20:38:17.551Z,100141.50
2022-11-28T20:40:45.481Z,100141.09
2022-11-28T20:43:14.256Z,100139.22
2022-11-28T20:45:44.147Z,100148.38
2022-11-28T20:48:16.800Z,100149.63
2022-11-28T20:50:52.313Z,100119.66
2022-11-28T20:53:26.921Z,100140.22
2022-11-28T20:56:07.038Z,100146.91
2022-11-28T20:58:45.169Z,100121.13
2022-11-28T21:01:33.465Z,100147.09
2022-11-28T21:04:07.744Z,100135.66
2022-11-28T21:06:48.840Z,100112.97
2022-11-28T21:09:23.983Z,100111.94
2022-11-28T21:11:58.929Z,100115.91
2022-11-28T21:14:52.112Z,100160.81
2022-11-28T21:17:34.459Z,100134.19
2022-11-28T21:20:07.121Z,100139.78
2022-11-28T21:23:02.565Z,100142.47
2022-11-28T21:25:38.250Z,100158.69
2022-11-28T21:28:24.982Z,100108.78
2022-11-28T21:31:28.706Z,100125.00
2022-11-28T21:34:05.257Z,100162.22
2022-11-28T21:36:35.606Z,100169.69
2022-11-28T21:39:06.697Z,100126.00
2022-11-28T21:41:36.351Z,100158.50
2022-11-28T21:44:06.469Z,100157.06
2022-11-28T21:46:35.498Z,100155.78
2022-11-28T21:49:06.994Z,100157.88
2022-11-28T21:51:38.754Z,100158.31
2022-11-28T21:54:08.949Z,100151.25
2022-11-28T21:56:40.896Z,100118.97
2022-11-28T21:59:09.861Z,100133.53
2022-11-28T22:01:42.261Z,100139.72
2022-11-28T22:04:13.864Z,100161.41
2022-11-28T22:06:43.978Z,100129.41
2022-11-28T22:12:21.990Z,100123.75
2022-11-28T22:14:50.144Z,100163.72
2022-11-28T22:17:18.236Z,100158.69
2022-11-28T22:19:47.557Z,100161.75
2022-11-28T22:22:15.688Z,100159.72
2022-11-28T22:24:43.679Z,100162.78
2022-11-28T22:27:11.785Z,100146.75
2022-11-28T22:29:39.713Z,100161.31
2022-11-28T22:32:07.678Z,100158.41
2022-11-28T22:34:39.692Z,100170.25
2022-11-28T22:37:09.582Z,100156.94
2022-11-28T22:39:38.981Z,100169.66
2022-11-28T22:42:07.372Z,100165.84
2022-11-28T22:44:35.671Z,100160.63
2022-11-28T22:47:03.680Z,100167.69
2022-11-28T22:49:31.702Z,100177.69
2022-11-28T22:51:59.699Z,100160.44
2022-11-28T22:54:31.458Z,100151.22
2022-11-28T22:57:00.047Z,100151.03
2022-11-28T22:59:29.639Z,100141.28
2022-11-28T23:01:58.298Z,100183.09
2022-11-28T23:04:29.608Z,100160.00
2022-11-28T23:06:57.820Z,100163.31
2022-11-28T23:09:25.946Z,100183.09
2022-11-28T23:11:55.284Z,100185.59
2022-11-28T23:14:23.541Z,100182.50
2022-11-28T23:16:51.601Z,100166.66
2022-11-28T23:19:20.960Z,100178.91
2022-11-28T23:21:51.103Z,100179.75
2022-11-28T23:24:25.064Z,100183.34
2022-11-28T23:27:00.171Z,100178.53
2022-11-28T23:29:42.277Z,100183.94
2022-11-28T23:32:12.490Z,100185.41
2022-11-28T23:34:41.467Z,100190.16
2022-11-28T23:37:17.728Z,100186.03
2022-11-28T23:39:52.908Z,100188.13
2022-11-28T23:42:28.788Z,100191.84
2022-11-28T23:45:02.692Z,100119.19
2022-11-28T23:47:34.648Z,100146.66
2022-11-28T23:50:09.811Z,100185.59
2022-11-28T23:52:42.229Z,100176.03
2022-11-28T23:55:13.451Z,100181.03
2022-11-28T23:57:47.218Z,100152.91
